Airport Name : Campo Grande

Other Name : Campo Grande

ICAO : SBCG

IATA : CGR

FAA :

Latitude : -20.468667

Longitude : -54.6725

Country : Brazil

Local Date and Time : 10/23/2018 3:21:00 AM

 

TAF (Terminal Aerodrome Forecast)

TAF SBCG 230300Z 2306/2406 02007KT 9999 FEW040 TX30/2317Z TN22/2406Z BECMG 2314/2316 35007KT SCT040 FEW045TCU PROB40 TEMPO 2400/2406 8000 TSRA BKN035 FEW040CB RMK PDW

 

METAR (METeorological Aerodrome Report)

SBCG 230700Z 06005KT 9999 SCT045 FEW050TCU 24/19 Q1011

SBCG 230600Z VRB02KT 9999 SCT045 FEW050TCU 25/19 Q1011

SBCG 230500Z 36005KT 9999 SCT040 FEW045TCU 26/20 Q1011

SBCG 230400Z 04006KT 9999 FEW040 FEW045TCU 25/19 Q1012